createdAt,value
2023-07-02T00:01:52.265Z,3.72
2023-07-02T00:04:20.497Z,2.67
2023-07-02T00:06:48.105Z,3.40
2023-07-02T00:09:15.757Z,3.28
2023-07-02T00:11:44.698Z,4.95
2023-07-02T00:14:11.760Z,3.65
2023-07-02T00:16:40.402Z,3.95
2023-07-02T00:19:07.255Z,2.72
2023-07-02T00:21:35.575Z,3.78
2023-07-02T00:24:02.354Z,3.05
2023-07-02T00:26:29.212Z,2.65
2023-07-02T00:28:57.053Z,2.58
2023-07-02T00:31:24.726Z,2.83
2023-07-02T00:33:51.947Z,3.00
2023-07-02T00:36:18.868Z,2.00
2023-07-02T00:38:48.073Z,2.05
2023-07-02T00:41:15.212Z,2.00
2023-07-02T00:43:42.041Z,3.22
2023-07-02T00:46:08.848Z,3.75
2023-07-02T00:48:35.842Z,5.13
2023-07-02T00:51:02.632Z,3.30
2023-07-02T00:53:29.450Z,3.75
2023-07-02T00:55:57.771Z,4.22
2023-07-02T00:58:24.626Z,2.28
2023-07-02T01:00:51.729Z,2.80
2023-07-02T01:03:18.489Z,2.95
2023-07-02T01:05:45.325Z,2.40
2023-07-02T01:08:12.132Z,1.60
2023-07-02T01:10:39.046Z,4.18
2023-07-02T01:13:12.930Z,3.75
2023-07-02T01:15:40.972Z,2.38
2023-07-02T01:18:08.967Z,2.65
2023-07-02T01:20:38.538Z,2.55
2023-07-02T01:23:05.618Z,1.83
2023-07-02T01:25:32.456Z,2.33
2023-07-02T01:27:59.247Z,1.77
2023-07-02T01:30:26.292Z,2.20
2023-07-02T01:32:53.142Z,2.90
2023-07-02T01:35:20.105Z,2.65
2023-07-02T01:37:48.321Z,3.95
2023-07-02T01:40:15.133Z,3.08
2023-07-02T01:42:41.896Z,2.47
2023-07-02T01:45:09.690Z,2.08
2023-07-02T01:47:36.551Z,2.35
2023-07-02T01:50:05.798Z,1.77
2023-07-02T01:52:32.584Z,2.15
2023-07-02T01:55:01.060Z,2.10
2023-07-02T01:57:27.815Z,1.50
2023-07-02T01:59:54.560Z,2.95
2023-07-02T02:02:21.380Z,1.50
2023-07-02T02:04:48.229Z,2.45
2023-07-02T02:07:15.021Z,3.08
2023-07-02T02:09:41.795Z,3.58
2023-07-02T02:12:10.181Z,1.40
2023-07-02T02:14:36.973Z,2.88
2023-07-02T02:17:04.238Z,2.28
2023-07-02T02:19:31.044Z,5.35
2023-07-02T02:21:57.796Z,1.98
2023-07-02T02:24:24.597Z,2.85
2023-07-02T02:26:51.350Z,1.92
2023-07-02T02:29:19.455Z,3.25
2023-07-02T02:31:46.329Z,3.35
2023-07-02T02:34:13.178Z,2.90
2023-07-02T02:36:39.910Z,1.88
2023-07-02T02:39:06.704Z,2.55
2023-07-02T02:41:33.453Z,5.20
2023-07-02T02:44:00.185Z,3.15
2023-07-02T02:46:28.288Z,2.78
2023-07-02T02:48:55.161Z,2.55
2023-07-02T02:51:21.939Z,5.90
2023-07-02T02:53:48.702Z,5.90
2023-07-02T02:56:15.608Z,3.95
2023-07-02T02:58:42.464Z,6.32
2023-07-02T03:01:09.240Z,4.05
2023-07-02T03:03:38.210Z,4.57
2023-07-02T03:06:05.038Z,7.97
2023-07-02T03:08:31.793Z,5.38
2023-07-02T03:10:58.570Z,3.83
2023-07-02T03:13:25.316Z,4.60
2023-07-02T03:15:52.054Z,2.90
2023-07-02T03:18:18.819Z,3.75
2023-07-02T03:20:47.113Z,2.22
2023-07-02T03:23:14.075Z,2.28
2023-07-02T03:25:40.836Z,2.03
2023-07-02T03:28:07.673Z,9.55
2023-07-02T03:30:34.492Z,3.03
2023-07-02T03:33:01.315Z,3.30
2023-07-02T03:35:28.112Z,3.20
2023-07-02T03:37:56.208Z,3.47
2023-07-02T03:40:23.026Z,3.88
2023-07-02T03:42:49.798Z,3.72
2023-07-02T03:45:16.641Z,3.70
2023-07-02T03:47:43.452Z,3.80
2023-07-02T03:50:10.825Z,3.53
2023-07-02T03:52:37.597Z,2.67
2023-07-02T03:55:06.991Z,1.58
2023-07-02T03:57:33.728Z,2.63
2023-07-02T04:00:00.529Z,4.85
2023-07-02T04:02:27.414Z,4.28
2023-07-02T04:04:54.244Z,2.60
2023-07-02T04:07:21.063Z,2.22
2023-07-02T04:09:47.789Z,1.60
2023-07-02T04:12:16.006Z,2.50
2023-07-02T04:14:42.779Z,3.83
2023-07-02T04:17:09.530Z,3.08
2023-07-02T04:19:36.296Z,2.72
2023-07-02T04:22:03.075Z,4.40
2023-07-02T04:24:29.819Z,3.85
2023-07-02T04:27:23.053Z,3.28
2023-07-02T04:29:45.108Z,2.50
2023-07-02T04:32:11.965Z,1.92
2023-07-02T04:34:38.721Z,2.70
2023-07-02T04:37:06.072Z,2.78
2023-07-02T04:39:32.944Z,3.75
2023-07-02T04:41:59.716Z,2.28
2023-07-02T04:44:26.492Z,3.05
2023-07-02T04:46:54.626Z,2.72
2023-07-02T04:49:21.361Z,3.53
2023-07-02T04:51:48.100Z,4.40
2023-07-02T04:54:14.875Z,2.90
2023-07-02T04:56:41.681Z,2.63
2023-07-02T04:59:08.425Z,4.30
2023-07-02T05:01:35.290Z,4.95
2023-07-02T05:04:03.576Z,3.42
2023-07-02T05:06:30.380Z,4.32
2023-07-02T05:08:57.133Z,2.47
2023-07-02T05:11:23.878Z,5.10
2023-07-02T05:13:50.642Z,3.20
2023-07-02T05:16:18.085Z,3.17
2023-07-02T05:18:44.848Z,4.55
2023-07-02T05:21:13.156Z,3.63
2023-07-02T05:23:39.886Z,4.80
2023-07-02T05:26:06.640Z,4.95
2023-07-02T05:28:33.410Z,3.10
2023-07-02T05:31:00.306Z,3.20
2023-07-02T05:33:27.190Z,2.33
2023-07-02T05:35:53.927Z,2.22
2023-07-02T05:38:22.679Z,2.95
2023-07-02T05:40:49.755Z,3.60
2023-07-02T05:43:16.787Z,2.55
2023-07-02T05:45:43.661Z,5.43
2023-07-02T05:48:10.503Z,5.32
2023-07-02T05:50:37.316Z,2.88
2023-07-02T05:53:04.071Z,3.10
2023-07-02T05:55:32.187Z,2.70
2023-07-02T05:57:58.924Z,2.45
2023-07-02T06:00:25.726Z,4.30
2023-07-02T06:02:52.578Z,4.82
2023-07-02T06:05:19.590Z,2.80
2023-07-02T06:07:46.471Z,2.83
2023-07-02T06:10:13.300Z,3.55
2023-07-02T06:12:41.442Z,3.80
2023-07-02T06:15:09.080Z,2.65
2023-07-02T06:17:37.357Z,3.33
2023-07-02T06:20:04.925Z,3.15
2023-07-02T06:22:31.914Z,4.20
2023-07-02T06:24:58.671Z,4.82
2023-07-02T06:27:25.489Z,2.22
2023-07-02T06:29:53.605Z,5.65
2023-07-02T06:32:20.406Z,4.97
2023-07-02T06:34:47.237Z,2.80
2023-07-02T06:37:13.975Z,3.10
2023-07-02T06:39:40.733Z,2.15
2023-07-02T06:42:07.691Z,3.53
2023-07-02T06:44:34.470Z,4.78
2023-07-02T06:47:02.598Z,3.00
2023-07-02T06:49:29.479Z,2.78
2023-07-02T06:51:56.250Z,2.55
2023-07-02T06:54:23.012Z,3.17
2023-07-02T06:56:49.931Z,2.97
2023-07-02T06:59:20.180Z,3.28
2023-07-02T07:01:47.182Z,2.78
2023-07-02T07:04:15.486Z,4.22
2023-07-02T07:06:42.573Z,2.97
2023-07-02T07:09:09.448Z,3.22
2023-07-02T07:11:36.406Z,2.92
2023-07-02T07:14:03.202Z,2.97
2023-07-02T07:16:29.974Z,3.80
2023-07-02T07:18:56.713Z,3.92
2023-07-02T07:21:24.965Z,3.63
2023-07-02T07:23:51.699Z,6.57
2023-07-02T07:26:18.449Z,3.88
2023-07-02T07:28:45.210Z,3.92
2023-07-02T07:31:12.029Z,6.82
2023-07-02T07:33:38.823Z,3.17
2023-07-02T07:36:05.813Z,3.78
2023-07-02T07:38:33.998Z,4.05
2023-07-02T07:41:00.760Z,3.58
2023-07-02T07:43:27.498Z,3.08
2023-07-02T07:45:54.479Z,2.50
2023-07-02T07:48:21.259Z,3.47
2023-07-02T07:50:48.498Z,5.28
2023-07-02T07:53:15.783Z,2.88
2023-07-02T07:55:43.988Z,4.03
2023-07-02T07:58:10.917Z,7.35
2023-07-02T08:00:37.734Z,6.40
2023-07-02T08:03:04.684Z,6.45
2023-07-02T08:05:31.725Z,8.00
2023-07-02T08:07:58.534Z,6.00
2023-07-02T08:10:25.540Z,7.72
2023-07-02T08:12:53.687Z,7.15
2023-07-02T08:15:20.532Z,7.78
2023-07-02T08:17:47.381Z,5.95
2023-07-02T08:20:14.183Z,6.13
2023-07-02T08:22:41.658Z,4.10
2023-07-02T08:25:08.797Z,2.78
2023-07-02T08:27:35.958Z,2.83
2023-07-02T08:30:05.046Z,2.33
2023-07-02T08:32:31.859Z,1.98
2023-07-02T08:34:58.695Z,3.03
2023-07-02T08:37:25.558Z,4.15
2023-07-02T08:39:52.325Z,3.03
2023-07-02T08:42:19.343Z,2.20
2023-07-02T08:44:47.522Z,4.82
2023-07-02T08:47:16.117Z,3.10
2023-07-02T08:49:43.188Z,3.03
2023-07-02T08:52:09.967Z,3.50
2023-07-02T08:54:36.997Z,4.63
2023-07-02T08:57:05.256Z,4.40
2023-07-02T08:59:32.072Z,4.68
2023-07-02T09:01:58.827Z,3.33
2023-07-02T09:04:27.382Z,7.00
2023-07-02T09:07:05.216Z,6.03
2023-07-02T09:09:32.168Z,8.38
2023-07-02T09:11:58.977Z,8.18
2023-07-02T09:14:27.395Z,6.97
2023-07-02T09:17:07.726Z,8.05
2023-07-02T09:19:37.113Z,8.05
2023-07-02T09:22:04.545Z,12.10
2023-07-02T09:24:33.009Z,12.35
2023-07-02T09:27:01.143Z,9.82
2023-07-02T09:29:29.893Z,12.93
2023-07-02T09:34:29.275Z,7.88
2023-07-02T09:36:57.753Z,10.30
2023-07-02T09:39:28.151Z,8.95
2023-07-02T09:41:56.508Z,9.10
2023-07-02T09:44:26.035Z,9.70
2023-07-02T09:46:59.373Z,8.10
2023-07-02T09:49:27.749Z,9.93
2023-07-02T09:51:54.761Z,11.02
2023-07-02T09:54:23.149Z,9.43
2023-07-02T09:56:50.099Z,10.32
2023-07-02T09:59:16.977Z,11.85
2023-07-02T10:01:43.900Z,15.20
2023-07-02T10:04:14.184Z,12.43
2023-07-02T10:06:48.339Z,14.40
2023-07-02T10:11:43.601Z,13.02
2023-07-02T10:14:10.646Z,11.90
2023-07-02T10:16:50.336Z,10.50
2023-07-02T10:19:17.156Z,12.40
2023-07-02T10:21:43.977Z,9.15
2023-07-02T10:24:12.320Z,9.63
2023-07-02T10:26:39.181Z,12.85
2023-07-02T10:29:07.815Z,11.43
2023-07-02T10:31:34.611Z,10.00
2023-07-02T10:34:01.363Z,12.68
2023-07-02T10:36:28.190Z,11.48
2023-07-02T10:39:01.655Z,9.95
2023-07-02T10:41:30.079Z,12.38
2023-07-02T10:44:07.904Z,10.30
2023-07-02T10:46:35.095Z,11.00
2023-07-02T10:49:01.957Z,11.88
2023-07-02T10:51:28.778Z,11.63
2023-07-02T10:53:58.791Z,8.40
2023-07-02T10:56:25.946Z,9.55
2023-07-02T10:58:52.698Z,10.20
2023-07-02T11:01:25.654Z,11.98
2023-07-02T11:04:00.110Z,13.30
2023-07-02T11:06:27.914Z,10.85
2023-07-02T11:08:55.019Z,10.95
2023-07-02T11:11:22.567Z,11.25
2023-07-02T11:13:50.541Z,9.75
2023-07-02T11:16:26.182Z,12.32
2023-07-02T11:18:54.151Z,12.50
2023-07-02T11:21:20.989Z,12.25
2023-07-02T11:23:47.729Z,9.75
2023-07-02T11:26:14.535Z,8.98
2023-07-02T11:28:50.588Z,8.13
2023-07-02T11:31:27.183Z,7.80
2023-07-02T11:33:54.328Z,7.00
2023-07-02T11:36:22.622Z,7.47
2023-07-02T11:38:50.642Z,8.65
2023-07-02T11:41:18.995Z,9.18
2023-07-02T11:43:48.118Z,8.02
2023-07-02T11:46:15.165Z,6.40
2023-07-02T11:48:43.526Z,8.80
2023-07-02T11:51:10.304Z,9.05
2023-07-02T11:53:37.075Z,9.73
2023-07-02T11:56:03.836Z,7.10
2023-07-02T11:58:30.595Z,8.05
2023-07-02T12:00:57.381Z,9.30
2023-07-02T12:03:24.127Z,7.43
2023-07-02T12:05:52.559Z,7.00
2023-07-02T12:08:19.642Z,8.65
2023-07-02T12:10:46.412Z,9.13
2023-07-02T12:13:13.183Z,7.97
2023-07-02T12:15:40.017Z,9.38
2023-07-02T12:18:07.200Z,8.85
2023-07-02T12:20:34.014Z,14.23
2023-07-02T12:23:02.141Z,8.90
2023-07-02T12:25:29.117Z,8.18
2023-07-02T12:27:55.980Z,9.43
2023-07-02T12:30:22.865Z,9.15
2023-07-02T12:32:49.748Z,10.38
2023-07-02T12:35:16.677Z,10.57
2023-07-02T12:37:47.551Z,8.90
2023-07-02T12:40:16.196Z,9.18
2023-07-02T12:42:44.361Z,8.48
2023-07-02T12:45:12.424Z,9.20
2023-07-02T12:47:39.624Z,11.65
2023-07-02T12:50:07.848Z,14.60
2023-07-02T12:52:34.764Z,12.32
2023-07-02T12:55:02.002Z,10.23
2023-07-02T12:57:30.206Z,12.30
2023-07-02T12:59:57.926Z,10.57
2023-07-02T13:02:25.289Z,15.57
2023-07-02T13:04:52.204Z,13.15
2023-07-02T13:07:19.306Z,13.30
2023-07-02T13:09:46.114Z,13.55
2023-07-02T13:12:12.877Z,15.90
2023-07-02T13:14:40.982Z,16.75
2023-07-02T13:17:07.779Z,15.38
2023-07-02T13:19:34.636Z,12.15
2023-07-02T13:22:02.079Z,11.75
2023-07-02T13:24:34.068Z,14.15
2023-07-02T13:27:02.935Z,14.75
2023-07-02T13:29:29.764Z,15.60
2023-07-02T13:31:57.931Z,16.50
2023-07-02T13:34:24.709Z,15.57
2023-07-02T13:36:51.444Z,14.95
2023-07-02T13:39:18.268Z,11.95
2023-07-02T13:41:45.064Z,16.30
2023-07-02T13:44:11.884Z,15.95
2023-07-02T13:46:38.793Z,11.73
2023-07-02T13:49:06.934Z,13.75
2023-07-02T13:51:37.454Z,15.75
2023-07-02T13:54:04.290Z,12.23
2023-07-02T13:56:31.042Z,14.48
2023-07-02T13:59:06.024Z,13.07
2023-07-02T14:01:33.692Z,12.50
2023-07-02T14:04:01.075Z,15.30
2023-07-02T14:06:28.298Z,11.48
2023-07-02T14:08:55.094Z,14.05
2023-07-02T14:11:23.104Z,13.13
2023-07-02T14:13:49.907Z,12.38
2023-07-02T14:16:18.096Z,18.20
2023-07-02T14:18:44.871Z,15.18
2023-07-02T14:21:11.749Z,12.20
2023-07-02T14:23:38.534Z,21.27
2023-07-02T14:26:05.452Z,14.90
2023-07-02T14:28:33.062Z,16.80
2023-07-02T14:31:01.467Z,16.83
2023-07-02T14:33:31.346Z,16.23
2023-07-02T14:35:58.252Z,15.77
2023-07-02T14:38:25.364Z,19.73
2023-07-02T14:40:54.019Z,18.23
2023-07-02T14:43:21.301Z,17.50
2023-07-02T14:45:49.635Z,19.33
2023-07-02T14:48:16.877Z,20.27
2023-07-02T14:50:46.625Z,17.52
2023-07-02T14:53:13.392Z,22.77
2023-07-02T14:55:41.212Z,20.67
2023-07-02T14:58:08.565Z,19.65
2023-07-02T15:00:35.602Z,20.42
2023-07-02T15:03:02.555Z,23.00
2023-07-02T15:05:29.483Z,24.17
2023-07-02T15:07:57.608Z,20.02
2023-07-02T15:10:24.349Z,18.85
2023-07-02T15:12:51.093Z,22.48
2023-07-02T15:15:18.061Z,26.20
2023-07-02T15:17:44.842Z,22.27
2023-07-02T15:20:12.580Z,22.90
2023-07-02T15:22:39.361Z,23.33
2023-07-02T15:25:08.297Z,20.65
2023-07-02T15:27:35.047Z,18.90
2023-07-02T15:30:01.943Z,25.02
2023-07-02T15:32:28.748Z,19.42
2023-07-02T15:34:55.688Z,23.42
2023-07-02T15:37:22.438Z,20.90
2023-07-02T15:39:49.234Z,22.23
2023-07-02T15:42:17.597Z,21.98
2023-07-02T15:44:44.960Z,21.08
2023-07-02T15:47:11.744Z,24.55
2023-07-02T15:49:39.754Z,22.48
2023-07-02T15:52:07.220Z,21.10
2023-07-02T15:54:34.130Z,22.58
2023-07-02T15:57:01.002Z,22.55
2023-07-02T15:59:29.266Z,25.45
2023-07-02T16:01:56.032Z,22.00
2023-07-02T16:04:23.029Z,27.58
2023-07-02T16:06:50.036Z,21.58
2023-07-02T16:09:16.771Z,22.95
2023-07-02T16:11:43.525Z,23.80
2023-07-02T16:14:12.172Z,24.85
2023-07-02T16:16:41.506Z,22.77
2023-07-02T16:19:09.647Z,22.70
2023-07-02T16:21:37.036Z,25.95
2023-07-02T16:24:05.422Z,25.75
2023-07-02T16:26:32.169Z,24.02
2023-07-02T16:28:59.085Z,24.35
2023-07-02T16:31:25.934Z,27.42
2023-07-02T16:33:53.998Z,23.35
2023-07-02T16:36:20.873Z,25.38
2023-07-02T16:38:47.622Z,23.35
2023-07-02T16:41:14.340Z,22.83
2023-07-02T16:43:41.104Z,24.08
2023-07-02T16:46:07.944Z,23.42
2023-07-02T16:48:34.712Z,21.40
2023-07-02T16:51:05.175Z,27.30
2023-07-02T16:53:32.240Z,24.17
2023-07-02T16:56:00.716Z,21.98
2023-07-02T16:58:29.260Z,24.13
2023-07-02T17:01:01.449Z,27.08
2023-07-02T17:03:28.444Z,21.95
2023-07-02T17:05:59.075Z,23.02
2023-07-02T17:08:27.197Z,23.17
2023-07-02T17:10:53.958Z,20.20
2023-07-02T17:13:20.731Z,23.42
2023-07-02T17:15:47.673Z,23.98
2023-07-02T17:18:14.596Z,27.42
2023-07-02T17:20:41.392Z,26.42
2023-07-02T17:23:08.179Z,26.02
2023-07-02T17:25:36.276Z,24.15
2023-07-02T17:28:03.095Z,27.85
2023-07-02T17:30:29.871Z,26.23
2023-07-02T17:32:57.034Z,26.15
2023-07-02T17:35:23.815Z,27.67
2023-07-02T17:37:50.596Z,25.08
2023-07-02T17:40:17.476Z,27.58
2023-07-02T17:42:45.544Z,24.58
2023-07-02T17:45:12.608Z,23.98
2023-07-02T17:47:39.418Z,30.90
2023-07-02T17:50:06.947Z,26.75
2023-07-02T17:52:33.700Z,25.85
2023-07-02T17:55:00.648Z,28.35
2023-07-02T17:57:27.512Z,26.45
2023-07-02T17:59:55.610Z,25.58
2023-07-02T18:02:22.789Z,25.08
2023-07-02T18:04:49.834Z,26.00
2023-07-02T18:07:19.252Z,25.42
2023-07-02T18:09:48.228Z,26.08
2023-07-02T18:12:19.086Z,24.38
2023-07-02T18:14:46.165Z,25.40
2023-07-02T18:17:15.052Z,27.75
2023-07-02T18:19:41.892Z,23.45
2023-07-02T18:22:09.468Z,27.00
2023-07-02T18:24:38.940Z,27.40
2023-07-02T18:27:06.672Z,29.85
2023-07-02T18:29:35.250Z,24.65
2023-07-02T18:32:03.451Z,24.60
2023-07-02T18:34:31.907Z,24.23
2023-07-02T18:36:58.693Z,22.27
2023-07-02T18:39:25.458Z,22.15
2023-07-02T18:41:52.241Z,25.63
2023-07-02T18:44:19.023Z,25.85
2023-07-02T18:46:45.984Z,26.23
2023-07-02T18:49:12.786Z,25.75
2023-07-02T18:51:40.909Z,22.45
2023-07-02T18:54:07.744Z,19.42
2023-07-02T18:56:34.552Z,20.60
2023-07-02T18:59:03.110Z,22.85
2023-07-02T19:01:30.165Z,24.88
2023-07-02T19:03:57.014Z,23.27
2023-07-02T19:06:24.024Z,22.73
2023-07-02T19:08:52.182Z,22.33
2023-07-02T19:11:18.949Z,21.25
2023-07-02T19:13:45.758Z,22.20
2023-07-02T19:16:12.558Z,23.42
2023-07-02T19:18:39.423Z,22.73
2023-07-02T19:21:06.182Z,22.17
2023-07-02T19:23:32.934Z,24.77
2023-07-02T19:26:01.037Z,26.20
2023-07-02T19:28:27.806Z,21.45
2023-07-02T19:30:54.596Z,21.67
2023-07-02T19:33:21.519Z,25.65
2023-07-02T19:35:48.713Z,24.27
2023-07-02T19:38:15.825Z,25.30
2023-07-02T19:40:42.556Z,22.05
2023-07-02T19:43:10.643Z,22.92
2023-07-02T19:45:37.399Z,22.92
2023-07-02T19:48:04.864Z,23.00
2023-07-02T19:50:31.644Z,25.77
2023-07-02T19:52:58.426Z,20.52
2023-07-02T19:55:25.149Z,26.27
2023-07-02T19:57:51.906Z,21.48
2023-07-02T20:00:20.460Z,21.80
2023-07-02T20:02:47.294Z,27.35
2023-07-02T20:05:14.239Z,24.88
2023-07-02T20:07:41.039Z,24.65
2023-07-02T20:10:08.669Z,20.80
2023-07-02T20:12:35.720Z,22.42
2023-07-02T20:15:03.629Z,25.75
2023-07-02T20:17:31.916Z,23.75
2023-07-02T20:19:59.867Z,22.95
2023-07-02T20:22:26.811Z,22.60
2023-07-02T20:24:53.592Z,24.73
2023-07-02T20:27:20.677Z,24.70
2023-07-02T20:29:47.600Z,24.48
2023-07-02T20:32:14.456Z,24.67
2023-07-02T20:34:42.579Z,23.92
2023-07-02T20:37:09.373Z,28.25
2023-07-02T20:39:36.248Z,25.23
2023-07-02T20:42:03.170Z,26.60
2023-07-02T20:44:29.942Z,24.13
2023-07-02T20:46:56.857Z,22.15
2023-07-02T20:49:23.677Z,25.75
2023-07-02T20:51:51.763Z,25.48
2023-07-02T20:54:19.349Z,24.92
2023-07-02T20:56:48.237Z,23.65
2023-07-02T20:59:15.221Z,22.52
2023-07-02T21:01:42.057Z,27.10
2023-07-02T21:04:10.105Z,27.08
2023-07-02T21:06:38.891Z,24.40
2023-07-02T21:09:08.393Z,23.27
2023-07-02T21:11:35.582Z,25.45
2023-07-02T21:14:03.550Z,23.55
2023-07-02T21:16:30.598Z,22.85
2023-07-02T21:18:57.627Z,27.30
2023-07-02T21:21:24.448Z,28.45
2023-07-02T21:23:51.206Z,26.20
2023-07-02T21:26:19.356Z,25.23
2023-07-02T21:28:46.410Z,22.77
2023-07-02T21:31:13.635Z,25.15
2023-07-02T21:33:40.862Z,22.98
2023-07-02T21:36:08.159Z,24.55
2023-07-02T21:38:34.957Z,26.50
2023-07-02T21:41:01.719Z,20.25
2023-07-02T21:43:30.025Z,24.70
2023-07-02T21:45:57.724Z,26.13
2023-07-02T21:48:24.668Z,23.35
2023-07-02T21:50:51.482Z,24.30
2023-07-02T21:53:18.441Z,27.15
2023-07-02T21:55:46.818Z,26.13
2023-07-02T21:58:13.567Z,24.95
2023-07-02T22:00:41.696Z,24.63
2023-07-02T22:03:08.469Z,26.38
2023-07-02T22:05:35.405Z,26.30
2023-07-02T22:08:02.378Z,25.60
2023-07-02T22:10:29.242Z,23.27
2023-07-02T22:12:55.980Z,25.45
2023-07-02T22:15:22.881Z,24.98
2023-07-02T22:17:50.995Z,27.70
2023-07-02T22:20:17.944Z,28.45
2023-07-02T22:22:44.707Z,28.27
2023-07-02T22:25:12.164Z,27.80
2023-07-02T22:27:40.610Z,25.65
2023-07-02T22:30:11.899Z,23.92
2023-07-02T22:32:38.888Z,23.58
2023-07-02T22:35:08.171Z,27.92
2023-07-02T22:37:35.837Z,20.80
2023-07-02T22:40:02.733Z,26.90
2023-07-02T22:42:29.467Z,27.80
2023-07-02T22:44:56.370Z,24.08
2023-07-02T22:47:23.187Z,22.25
2023-07-02T22:49:49.963Z,24.05
2023-07-02T22:52:18.148Z,25.88
2023-07-02T22:54:45.182Z,26.77
2023-07-02T22:57:11.978Z,23.38
2023-07-02T22:59:38.750Z,26.20
2023-07-02T23:02:05.876Z,22.25
2023-07-02T23:04:32.858Z,27.63
2023-07-02T23:06:59.653Z,24.17
2023-07-02T23:09:27.720Z,21.65
2023-07-02T23:11:54.522Z,18.20
2023-07-02T23:14:21.276Z,24.55
2023-07-02T23:16:48.266Z,25.35
2023-07-02T23:19:15.115Z,23.60
2023-07-02T23:21:41.878Z,22.08
2023-07-02T23:24:08.675Z,23.20
2023-07-02T23:26:36.774Z,22.27
2023-07-02T23:29:03.512Z,25.60
2023-07-02T23:31:30.460Z,22.52
2023-07-02T23:33:57.384Z,24.42
2023-07-02T23:36:24.106Z,22.90
2023-07-02T23:38:51.529Z,20.70
2023-07-02T23:41:18.730Z,27.95
2023-07-02T23:43:46.965Z,22.42
2023-07-02T23:46:14.012Z,25.70
2023-07-02T23:48:40.802Z,21.52
2023-07-02T23:51:07.534Z,22.15
2023-07-02T23:53:34.244Z,24.25
2023-07-02T23:56:00.981Z,28.63
2023-07-02T23:58:27.773Z,25.75
